Glen Cove, Washington
Current Conditions -  °F | °C
As of 10:56 PM on Saturday 20 Dec 2014 (Local Time) from KNUW Reporting Station
Overcast Overcast  
Wind Chill: 54°   Ceiling: 5500
Heat Index: 54°   Visibility: 10mi
Dew Point: 50°   Wind: 10mph
Humidity: 86%   Direction: 180°S
Pressure: 29.45"   Gusts: 16mph
Location:  48.026°N, 122.859°W
Report Text: KNUW 210656Z 18009G14KT 130V230 10SM FEW013 SCT038 OVC055 12/10 A2945 RMK AO2 RAB28E55 SLP977 P0000 T01220100 VISNO E $
Loading
Personal Weather Stations






























Interactive Weather Map New forecast layout! Learn more

10-Day Weather Forecast

Advertisements
Track Severe Weather on mobile